Time;durP1;ratioP1;P1;durP2;ratioP2;P2;SDS_P1;SDS_P2;PMS_P1;PMS_P2;Temp;Humidity;BMP_temperature;BMP_pressure;BME280_temperature;BME280_humidity;BME280_pressure;Samples;Min_cycle;Max_cycle;Signal;HPM_P1;HPM_P2
2022/05/19 00:06:08;;;;;;;3.38;3.10;;;20.70;99.90;;;;;;2081324;28;20029;-70
2022/05/19 00:07:10;;;;;;;3.42;3.00;;;20.70;99.90;;;;;;2081223;28;20035;-70
2022/05/19 00:08:10;;;;;;;3.92;3.47;;;20.60;99.90;;;;;;2081672;28;20060;-70
2022/05/19 00:09:11;;;;;;;3.60;3.30;;;20.60;99.90;;;;;;2081691;28;20021;-70
2022/05/19 00:10:12;;;;;;;3.83;3.30;;;20.60;99.90;;;;;;2082625;28;20485;-69
2022/05/19 00:11:16;;;;;;;3.85;3.10;;;20.60;99.90;;;;;;2084120;28;20032;-70
2022/05/19 00:12:19;;;;;;;4.85;3.42;;;20.60;99.90;;;;;;2084685;28;20420;-70
2022/05/19 00:13:20;;;;;;;5.10;3.38;;;20.60;99.90;;;;;;2082284;28;20072;-70
2022/05/19 00:14:21;;;;;;;4.90;3.40;;;20.60;99.90;;;;;;2085979;28;20476;-70
2022/05/19 00:15:21;;;;;;;5.78;3.50;;;20.60;99.90;;;;;;2083873;28;20060;-70
2022/05/19 00:16:22;;;;;;;5.10;3.70;;;20.60;99.90;;;;;;2085529;28;20029;-70
2022/05/19 00:17:22;;;;;;;5.97;3.08;;;20.60;99.90;;;;;;2084421;28;20493;-70
2022/05/19 00:18:23;;;;;;;5.80;3.13;;;20.50;99.90;;;;;;2083008;28;20075;-69
2022/05/19 00:19:25;;;;;;;4.88;3.30;;;20.50;99.90;;;;;;2083886;28;20082;-69
2022/05/19 00:20:26;;;;;;;4.97;3.08;;;20.50;99.90;;;;;;2083750;28;20025;-69
2022/05/19 00:21:26;;;;;;;4.50;3.03;;;20.50;99.90;;;;;;2084081;28;20029;-70
2022/05/19 00:22:27;;;;;;;6.35;2.72;;;20.50;99.90;;;;;;2083372;28;20533;-69
2022/05/19 00:23:28;;;;;;;3.00;2.75;;;20.50;99.90;;;;;;2083873;28;20546;-69
2022/05/19 00:24:29;;;;;;;3.13;2.80;;;20.50;99.90;;;;;;2085178;28;20388;-69
2022/05/19 00:25:30;;;;;;;5.90;3.13;;;20.50;99.90;;;;;;2082537;28;20577;-70
2022/05/19 00:26:30;;;;;;;3.92;3.30;;;20.50;99.90;;;;;;2083556;28;20390;-70
2022/05/19 00:27:31;;;;;;;3.13;2.80;;;20.50;99.90;;;;;;2084273;28;20021;-70
2022/05/19 00:28:31;;;;;;;3.40;2.90;;;20.50;99.90;;;;;;2083174;28;20068;-70
2022/05/19 00:29:32;;;;;;;3.42;2.63;;;20.50;99.90;;;;;;2084808;28;20033;-70
2022/05/19 00:30:34;;;;;;;4.18;2.88;;;20.50;99.90;;;;;;2086637;28;20031;-70
2022/05/19 00:31:35;;;;;;;2.78;2.53;;;20.50;99.90;;;;;;2082986;28;20048;-70
2022/05/19 00:32:36;;;;;;;5.22;2.80;;;20.50;99.90;;;;;;2083515;28;20025;-70
2022/05/19 00:33:36;;;;;;;4.68;2.67;;;20.50;99.90;;;;;;2082229;28;20021;-70
2022/05/19 00:34:37;;;;;;;4.10;2.88;;;20.50;99.90;;;;;;2082487;28;20032;-70
2022/05/19 00:35:38;;;;;;;3.50;2.80;;;20.50;99.90;;;;;;2081105;28;20091;-70
2022/05/19 00:36:39;;;;;;;4.50;2.72;;;20.50;99.90;;;;;;2082957;28;20033;-70
2022/05/19 00:37:40;;;;;;;5.28;2.63;;;20.50;99.90;;;;;;2081026;28;20029;-70
2022/05/19 00:38:41;;;;;;;4.45;2.90;;;20.50;99.90;;;;;;2085164;28;20130;-70
2022/05/19 00:39:41;;;;;;;3.00;2.80;;;20.50;99.90;;;;;;2083125;28;20034;-70
2022/05/19 00:40:48;;;;;;;7.05;2.80;;;20.50;99.90;;;;;;2083261;28;20021;-70
2022/05/19 00:42:43;;;;;;;8.52;3.15;;;20.50;99.90;;;;;;2082264;28;20041;-70
2022/05/19 00:43:09;;;;;;;4.20;2.65;;;20.50;99.90;;;;;;2085265;28;20040;-70
2022/05/19 00:44:10;;;;;;;4.57;2.70;;;20.50;99.90;;;;;;2081361;28;20021;-70
2022/05/19 00:45:14;;;;;;;3.05;2.47;;;20.50;99.90;;;;;;2080483;28;20100;-70
2022/05/19 00:46:28;;;;;;;3.15;2.85;;;20.50;99.90;;;;;;2082477;28;20673;-70
2022/05/19 00:47:41;;;;;;;4.65;2.70;;;20.50;99.90;;;;;;2082174;28;20068;-70
2022/05/19 00:49:12;;;;;;;7.38;2.97;;;20.50;99.90;;;;;;2082199;28;20503;-70
2022/05/19 00:50:22;;;;;;;3.97;2.67;;;20.40;99.90;;;;;;2084146;28;20033;-70
2022/05/19 00:51:36;;;;;;;4.13;2.80;;;20.40;99.90;;;;;;2083672;28;20025;-70
2022/05/19 00:52:42;;;;;;;7.60;2.40;;;20.40;99.90;;;;;;2082284;28;20039;-70
2022/05/19 00:53:47;;;;;;;5.18;2.97;;;20.40;99.90;;;;;;2083936;28;20392;-70
2022/05/19 00:54:52;;;;;;;3.78;2.90;;;20.40;99.90;;;;;;2084908;28;20504;-70
2022/05/19 00:55:54;;;;;;;3.28;2.70;;;20.40;99.90;;;;;;2083208;28;20025;-70
2022/05/19 00:57:04;;;;;;;7.30;2.80;;;20.40;99.90;;;;;;2084773;28;20075;-70
2022/05/19 00:58:32;;;;;;;4.33;2.60;;;20.40;99.90;;;;;;2084420;28;20025;-69
2022/05/19 00:59:51;;;;;;;3.53;2.92;;;20.40;99.90;;;;;;2082223;28;20331;-70
2022/05/19 01:00:53;;;;;;;5.88;2.67;;;20.40;99.90;;;;;;2082370;28;20583;-70
2022/05/19 01:01:55;;;;;;;2.45;2.22;;;20.40;99.90;;;;;;2084310;28;20024;-70
2022/05/19 01:02:58;;;;;;;3.45;2.90;;;20.40;99.90;;;;;;2082673;28;20017;-70
2022/05/19 01:04:21;;;;;;;3.42;2.70;;;20.50;99.90;;;;;;2084721;28;20620;-69
2022/05/19 01:05:36;;;;;;;3.90;2.30;;;20.50;99.90;;;;;;2082787;28;20423;-70
2022/05/19 01:06:38;;;;;;;4.03;2.38;;;20.50;99.90;;;;;;2082323;28;20045;-70
2022/05/19 01:08:04;;;;;;;3.75;2.30;;;20.50;99.90;;;;;;2085437;28;20358;-70
2022/05/19 01:09:12;;;;;;;2.60;2.40;;;20.50;99.90;;;;;;2083081;28;20044;-70
2022/05/19 01:10:15;;;;;;;3.10;2.60;;;20.60;99.90;;;;;;2085175;28;20074;-70
2022/05/19 01:11:16;;;;;;;2.95;2.65;;;20.60;99.90;;;;;;2080082;28;20025;-70
2022/05/19 01:12:16;;;;;;;3.83;2.50;;;20.60;99.90;;;;;;2081356;28;20218;-70
2022/05/19 01:13:18;;;;;;;2.65;2.20;;;20.60;99.90;;;;;;2082793;28;20014;-70
2022/05/19 01:14:18;;;;;;;5.03;2.63;;;20.70;99.90;;;;;;2081702;28;20021;-70
2022/05/19 01:15:20;;;;;;;5.63;3.10;;;20.60;99.90;;;;;;2082344;28;20125;-70
2022/05/19 01:16:20;;;;;;;4.18;2.20;;;20.70;99.90;;;;;;2081796;28;20041;-70
2022/05/19 01:17:22;;;;;;;6.03;2.70;;;20.70;99.90;;;;;;2087229;28;20503;-70
2022/05/19 01:18:25;;;;;;;4.90;2.38;;;20.70;99.90;;;;;;2083896;28;20516;-70
2022/05/19 01:19:37;;;;;;;3.70;2.55;;;20.70;99.90;;;;;;2082749;28;20017;-70
2022/05/19 01:20:38;;;;;;;4.55;2.50;;;20.70;99.90;;;;;;2084553;28;20534;-70
2022/05/19 01:21:38;;;;;;;3.72;2.60;;;20.70;99.90;;;;;;2082314;28;20448;-70
2022/05/19 01:22:54;;;;;;;3.35;2.38;;;20.70;99.90;;;;;;2084041;28;20076;-70
2022/05/19 01:24:25;;;;;;;4.75;2.53;;;20.80;99.90;;;;;;2081081;28;20029;-70
2022/05/19 01:25:34;;;;;;;3.33;2.45;;;20.70;99.90;;;;;;2083085;28;20045;-70
2022/05/19 01:26:47;;;;;;;6.20;2.53;;;20.80;99.90;;;;;;2081837;28;20021;-70
2022/05/19 01:27:48;;;;;;;3.47;2.67;;;20.80;99.90;;;;;;2082030;28;20268;-70
2022/05/19 01:28:49;;;;;;;5.00;2.42;;;20.80;99.90;;;;;;2083654;28;20022;-69
2022/05/19 01:29:49;;;;;;;4.35;2.55;;;20.80;99.90;;;;;;2083777;28;20055;-69
2022/05/19 01:30:50;;;;;;;4.90;2.60;;;20.80;99.90;;;;;;2083041;28;20017;-69
2022/05/19 01:31:53;;;;;;;2.53;2.10;;;20.90;99.90;;;;;;2082563;28;20055;-70
2022/05/19 01:32:54;;;;;;;3.92;2.70;;;20.90;99.90;;;;;;2082682;28;20029;-70
2022/05/19 01:33:55;;;;;;;3.22;2.33;;;20.90;99.90;;;;;;2083394;28;20477;-70
2022/05/19 01:34:58;;;;;;;2.50;2.15;;;20.90;99.90;;;;;;2083657;28;20387;-70
2022/05/19 01:35:59;;;;;;;5.45;2.35;;;21.00;99.90;;;;;;2082368;28;20045;-70
2022/05/19 01:37:00;;;;;;;5.22;2.10;;;21.00;99.90;;;;;;2081820;28;20025;-70
2022/05/19 01:38:05;;;;;;;3.63;2.38;;;21.00;99.90;;;;;;2084120;28;20381;-70
2022/05/19 01:39:12;;;;;;;3.38;2.65;;;21.00;99.90;;;;;;2082851;28;20017;-70
2022/05/19 01:40:18;;;;;;;3.65;2.15;;;21.00;99.90;;;;;;2083625;28;20032;-70
2022/05/19 01:41:30;;;;;;;6.47;2.65;;;21.10;99.90;;;;;;2084245;28;20241;-70
2022/05/19 01:42:41;;;;;;;4.72;2.55;;;21.10;99.90;;;;;;2082674;28;20024;-70
2022/05/19 01:43:56;;;;;;;3.60;2.50;;;21.10;99.90;;;;;;2082778;28;20080;-70
2022/05/19 01:45:34;;;;;;;4.38;2.72;;;21.00;99.90;;;;;;2083869;28;20060;-70
2022/05/19 01:46:38;;;;;;;3.05;2.30;;;21.00;99.90;;;;;;2084832;28;20557;-70
2022/05/19 01:47:50;;;;;;;2.80;2.20;;;21.00;99.90;;;;;;2085173;28;20017;-70
2022/05/19 01:49:03;;;;;;;5.25;2.63;;;21.10;99.90;;;;;;2087296;28;20025;-70
2022/05/19 01:50:25;;;;;;;5.13;2.78;;;21.00;99.90;;;;;;2083463;28;20017;-70
2022/05/19 01:51:43;;;;;;;4.45;2.08;;;21.00;99.90;;;;;;2084425;28;20029;-70
2022/05/19 01:52:57;;;;;;;4.40;2.17;;;21.00;99.90;;;;;;2081720;28;20067;-70
2022/05/19 01:54:23;;;;;;;3.05;2.30;;;21.00;99.90;;;;;;2084496;28;20512;-70
2022/05/19 01:55:36;;;;;;;5.95;2.53;;;21.00;99.90;;;;;;2081831;28;20196;-70
2022/05/19 01:57:02;;;;;;;7.40;2.90;;;21.00;99.90;;;;;;2084117;28;20481;-70
2022/05/19 01:58:14;;;;;;;3.97;2.30;;;21.00;99.90;;;;;;2083239;28;20033;-70
2022/05/19 01:59:43;;;;;;;2.65;2.40;;;21.00;99.90;;;;;;2080620;28;20469;-70
2022/05/19 02:00:45;;;;;;;3.50;2.17;;;21.00;99.90;;;;;;2084512;28;20477;-70
2022/05/19 02:01:55;;;;;;;2.92;2.60;;;21.00;99.90;;;;;;2082949;28;20079;-70
2022/05/19 02:03:07;;;;;;;2.55;2.10;;;21.00;99.90;;;;;;2082584;28;20021;-70
2022/05/19 02:04:18;;;;;;;2.20;2.00;;;21.00;99.90;;;;;;2084027;28;20048;-70
2022/05/19 02:05:49;;;;;;;2.95;1.92;;;21.00;99.90;;;;;;2084106;28;20378;-70
2022/05/19 02:06:57;;;;;;;3.10;2.38;;;21.00;99.90;;;;;;2082726;28;20639;-70
2022/05/19 02:08:01;;;;;;;4.43;2.85;;;21.00;99.90;;;;;;2082713;28;20116;-69
2022/05/19 02:09:25;;;;;;;3.42;2.45;;;21.10;99.90;;;;;;2082375;28;20028;-69
2022/05/19 02:10:30;;;;;;;3.40;2.20;;;21.10;99.90;;;;;;2079247;28;20038;-70
2022/05/19 02:11:36;;;;;;;4.47;2.13;;;21.10;99.90;;;;;;2081330;28;20370;-70
2022/05/19 02:12:37;;;;;;;5.18;2.58;;;21.10;99.90;;;;;;2084439;28;20021;-70
2022/05/19 02:13:38;;;;;;;3.15;2.50;;;21.10;99.90;;;;;;2082461;28;20025;-70
2022/05/19 02:15:02;;;;;;;4.15;2.30;;;21.20;99.90;;;;;;2080859;28;20022;-70
2022/05/19 02:16:07;;;;;;;4.80;2.22;;;21.20;99.90;;;;;;2080569;28;20041;-70
2022/05/19 02:17:10;;;;;;;3.28;2.30;;;21.20;99.90;;;;;;2084763;28;20032;-69
2022/05/19 02:18:13;;;;;;;2.50;2.13;;;21.20;99.90;;;;;;2084158;28;20106;-69
2022/05/19 02:19:20;;;;;;;3.10;2.70;;;21.20;99.90;;;;;;2083747;28;20068;-69
2022/05/19 02:20:24;;;;;;;5.30;2.08;;;21.20;99.90;;;;;;2082342;28;20607;-69
2022/05/19 02:21:27;;;;;;;2.60;2.13;;;21.20;99.70;;;;;;2083065;28;20017;-69
2022/05/19 02:22:34;;;;;;;8.65;2.50;;;21.30;99.40;;;;;;2083279;28;20119;-69
2022/05/19 02:23:35;;;;;;;4.10;2.58;;;21.30;99.10;;;;;;2082076;28;20032;-69
2022/05/19 02:24:40;;;;;;;3.85;2.50;;;21.30;99.30;;;;;;2083804;28;20025;-69
2022/05/19 02:25:47;;;;;;;5.68;2.67;;;21.30;99.00;;;;;;2082909;28;20032;-69
2022/05/19 02:26:48;;;;;;;3.90;2.33;;;21.30;99.10;;;;;;2083824;28;20017;-69
2022/05/19 02:27:54;;;;;;;5.93;2.13;;;21.30;98.80;;;;;;2084853;28;20021;-69
2022/05/19 02:29:06;;;;;;;4.65;2.30;;;21.40;98.10;;;;;;2080445;28;20018;-70
2022/05/19 02:30:10;;;;;;;3.17;2.85;;;21.30;98.30;;;;;;2081634;28;20029;-69
2022/05/19 02:31:11;;;;;;;4.60;1.98;;;21.40;98.20;;;;;;2083229;28;20021;-69
2022/05/19 02:32:12;;;;;;;2.58;2.20;;;21.30;97.60;;;;;;2080163;28;20029;-69
2022/05/19 02:33:14;;;;;;;5.57;2.53;;;21.40;98.00;;;;;;2083350;28;20034;-69
2022/05/19 02:34:15;;;;;;;3.50;2.30;;;21.40;97.20;;;;;;2084245;28;20404;-69
2022/05/19 02:35:17;;;;;;;7.43;2.15;;;21.40;96.20;;;;;;2082380;28;20041;-69
2022/05/19 02:36:17;;;;;;;4.95;2.60;;;21.50;96.70;;;;;;2083122;28;20473;-69
2022/05/19 02:37:18;;;;;;;2.88;2.28;;;21.50;96.70;;;;;;2081917;28;20389;-69
2022/05/19 02:38:20;;;;;;;2.65;2.20;;;21.50;96.10;;;;;;2082328;28;20025;-69
2022/05/19 02:39:21;;;;;;;3.75;2.30;;;21.50;95.60;;;;;;2082882;28;20104;-69
2022/05/19 02:40:25;;;;;;;4.57;2.35;;;21.50;95.30;;;;;;2084077;28;20028;-70
2022/05/19 02:41:25;;;;;;;2.30;2.10;;;21.60;95.70;;;;;;2081515;28;21015;-70
2022/05/19 02:42:26;;;;;;;4.75;2.45;;;21.50;95.60;;;;;;2081730;28;20018;-70
2022/05/19 02:43:27;;;;;;;4.03;1.98;;;21.50;95.80;;;;;;2084576;28;20838;-70
2022/05/19 02:44:27;;;;;;;2.78;2.17;;;21.60;95.20;;;;;;2084792;28;20097;-70
2022/05/19 02:45:29;;;;;;;4.22;2.35;;;21.60;95.60;;;;;;2081055;28;20646;-69
2022/05/19 02:46:29;;;;;;;4.57;2.53;;;21.60;95.40;;;;;;2083866;28;20030;-69
2022/05/19 02:47:30;;;;;;;4.05;2.33;;;21.60;94.80;;;;;;2081804;28;20157;-69
2022/05/19 02:48:32;;;;;;;5.63;2.30;;;21.60;94.80;;;;;;2083359;28;20029;-69
2022/05/19 02:49:33;;;;;;;4.82;2.47;;;21.60;94.80;;;;;;2083206;28;20026;-69
2022/05/19 02:50:33;;;;;;;2.30;2.03;;;21.60;94.30;;;;;;2082763;28;20037;-69
2022/05/19 02:51:34;;;;;;;3.75;2.20;;;21.60;93.90;;;;;;2083937;28;20021;-69
2022/05/19 02:52:35;;;;;;;5.57;2.53;;;21.60;93.90;;;;;;2080572;28;20038;-69
2022/05/19 02:53:35;;;;;;;2.85;2.08;;;21.60;94.00;;;;;;2084140;28;20500;-69
2022/05/19 02:54:36;;;;;;;3.22;2.38;;;21.60;94.50;;;;;;2082300;28;20092;-69
2022/05/19 02:55:38;;;;;;;7.00;2.88;;;21.60;94.30;;;;;;2086434;28;20021;-69
2022/05/19 02:56:38;;;;;;;3.40;2.38;;;21.70;94.30;;;;;;2083356;28;20100;-69
2022/05/19 02:57:39;;;;;;;2.28;2.05;;;21.70;94.20;;;;;;2080422;28;20076;-69
2022/05/19 02:58:39;;;;;;;4.53;2.20;;;21.60;93.80;;;;;;2082166;28;20029;-69
2022/05/19 02:59:40;;;;;;;4.30;2.28;;;21.60;93.60;;;;;;2084070;28;20037;-70
2022/05/19 03:00:43;;;;;;;3.22;2.20;;;21.70;93.60;;;;;;2083235;28;20061;-70
2022/05/19 03:01:44;;;;;;;3.03;2.10;;;21.60;93.70;;;;;;2082883;28;20025;-70
2022/05/19 03:02:44;;;;;;;3.75;2.20;;;21.70;93.90;;;;;;2082412;28;20025;-69
2022/05/19 03:03:45;;;;;;;3.13;2.83;;;21.70;93.80;;;;;;2083746;28;20410;-69
2022/05/19 03:04:46;;;;;;;2.22;2.03;;;21.70;93.00;;;;;;2083313;28;20040;-69
2022/05/19 03:05:47;;;;;;;3.38;2.28;;;21.70;93.30;;;;;;2080432;28;20024;-69
2022/05/19 03:06:48;;;;;;;7.03;2.10;;;21.70;93.30;;;;;;2083364;28;20389;-69
2022/05/19 03:07:49;;;;;;;4.32;2.22;;;21.70;93.20;;;;;;2084182;28;20287;-70
2022/05/19 03:08:49;;;;;;;5.65;2.55;;;21.70;93.20;;;;;;2082985;28;20025;-70
2022/05/19 03:09:50;;;;;;;3.00;2.30;;;21.70;92.90;;;;;;2083011;28;20033;-70
2022/05/19 03:10:51;;;;;;;7.32;2.75;;;21.70;92.90;;;;;;2080754;28;20081;-70
2022/05/19 03:11:51;;;;;;;3.42;2.00;;;21.70;92.90;;;;;;2084473;28;20463;-70
2022/05/19 03:12:55;;;;;;;2.88;2.20;;;21.70;92.80;;;;;;2082187;28;20052;-69
2022/05/19 03:13:55;;;;;;;3.00;1.95;;;21.70;92.70;;;;;;2083504;28;20029;-69
2022/05/19 03:14:56;;;;;;;5.40;2.17;;;21.70;92.60;;;;;;2085709;28;20104;-69
2022/05/19 03:15:57;;;;;;;2.83;2.08;;;21.70;92.50;;;;;;2082274;28;20030;-70
2022/05/19 03:16:57;;;;;;;3.08;1.88;;;21.70;92.10;;;;;;2085904;28;20021;-69
2022/05/19 03:17:58;;;;;;;3.35;2.30;;;21.70;92.10;;;;;;2084226;28;20513;-69
2022/05/19 03:18:59;;;;;;;3.03;2.38;;;21.70;92.40;;;;;;2084610;28;20456;-69
2022/05/19 03:20:00;;;;;;;3.22;2.08;;;21.70;92.20;;;;;;2085579;28;20507;-69
2022/05/19 03:21:00;;;;;;;2.80;2.25;;;21.70;92.50;;;;;;2082791;28;20026;-69
2022/05/19 03:22:02;;;;;;;6.60;2.22;;;21.70;92.60;;;;;;2082642;28;20096;-69
2022/05/19 03:23:02;;;;;;;3.10;2.08;;;21.70;92.00;;;;;;2086018;28;20032;-69
2022/05/19 03:24:03;;;;;;;3.53;2.30;;;21.70;92.10;;;;;;2085022;28;20469;-69
2022/05/19 03:25:06;;;;;;;6.47;2.45;;;21.70;92.10;;;;;;2083635;28;20049;-70
2022/05/19 03:26:06;;;;;;;2.95;2.30;;;21.70;92.20;;;;;;2084408;28;20036;-69
2022/05/19 03:27:07;;;;;;;2.50;1.73;;;21.70;91.60;;;;;;2084904;28;20545;-69
2022/05/19 03:28:11;;;;;;;5.50;2.60;;;21.70;91.70;;;;;;2084201;28;20041;-69
2022/05/19 03:29:12;;;;;;;5.18;2.50;;;21.70;91.80;;;;;;2083420;28;20108;-70
2022/05/19 03:30:15;;;;;;;6.28;2.60;;;21.70;91.60;;;;;;2084050;28;20032;-70
2022/05/19 03:31:15;;;;;;;3.65;2.10;;;21.70;91.50;;;;;;2083239;28;20052;-70
2022/05/19 03:32:17;;;;;;;3.63;2.13;;;21.70;91.50;;;;;;2084687;28;20063;-70
2022/05/19 03:33:18;;;;;;;2.85;2.47;;;21.70;91.80;;;;;;2083504;28;20025;-70
2022/05/19 03:34:18;;;;;;;5.30;2.38;;;21.70;91.80;;;;;;2083575;28;20053;-70
2022/05/19 03:35:19;;;;;;;4.65;2.75;;;21.70;91.50;;;;;;2084799;28;20033;-70
2022/05/19 03:36:20;;;;;;;3.92;2.42;;;21.70;91.40;;;;;;2084079;28;20469;-70
2022/05/19 03:37:21;;;;;;;4.47;2.30;;;21.80;91.70;;;;;;2084202;28;20048;-70
2022/05/19 03:38:21;;;;;;;2.95;2.28;;;21.70;91.10;;;;;;2086691;28;20024;-69
2022/05/19 03:39:22;;;;;;;5.10;2.83;;;21.70;91.50;;;;;;2081090;28;20564;-69
2022/05/19 03:40:23;;;;;;;4.05;2.40;;;21.70;91.60;;;;;;2084593;28;20087;-70
2022/05/19 03:41:23;;;;;;;3.78;2.25;;;21.80;91.50;;;;;;2085795;28;20076;-70
2022/05/19 03:42:24;;;;;;;2.30;2.20;;;21.80;91.50;;;;;;2082678;28;20044;-70
2022/05/19 03:43:25;;;;;;;3.70;2.20;;;21.70;91.70;;;;;;2081443;28;20539;-70
2022/05/19 03:44:25;;;;;;;4.85;2.25;;;21.70;91.70;;;;;;2085238;28;20017;-69
2022/05/19 03:45:26;;;;;;;3.72;2.38;;;21.70;91.70;;;;;;2081266;28;20489;-70
2022/05/19 03:46:27;;;;;;;3.47;2.20;;;21.70;91.60;;;;;;2085900;28;20030;-70
2022/05/19 03:47:27;;;;;;;2.85;2.10;;;21.70;91.50;;;;;;2087124;28;20017;-70
2022/05/19 03:48:36;;;;;;;2.92;2.38;;;21.70;91.50;;;;;;2083661;28;20450;-70
2022/05/19 03:49:37;;;;;;;4.10;2.58;;;21.70;91.50;;;;;;2085674;28;20143;-69
2022/05/19 03:50:38;;;;;;;3.53;2.45;;;21.70;91.40;;;;;;2082260;28;20021;-70
2022/05/19 03:51:40;;;;;;;4.63;2.53;;;21.70;91.30;;;;;;2084679;28;20029;-70
2022/05/19 03:52:42;;;;;;;3.35;2.10;;;21.80;91.30;;;;;;2085205;28;20021;-69
2022/05/19 03:53:42;;;;;;;3.42;2.55;;;21.80;90.90;;;;;;2085699;28;20095;-70
2022/05/19 03:54:44;;;;;;;4.20;2.67;;;21.80;91.40;;;;;;2084451;28;20029;-70
2022/05/19 03:55:45;;;;;;;3.65;2.75;;;21.80;91.80;;;;;;2085421;28;21338;-70
2022/05/19 03:56:46;;;;;;;3.55;2.22;;;21.80;91.40;;;;;;2083466;28;20040;-70
2022/05/19 03:57:46;;;;;;;3.75;2.20;;;21.80;91.00;;;;;;2084743;28;20100;-70
2022/05/19 03:58:48;;;;;;;3.42;2.42;;;21.80;91.40;;;;;;2083253;28;20488;-70
2022/05/19 03:59:49;;;;;;;3.83;2.35;;;21.80;91.60;;;;;;2085262;28;20014;-70
2022/05/19 04:00:50;;;;;;;2.40;2.20;;;21.80;91.30;;;;;;2085214;28;20094;-70
2022/05/19 04:01:50;;;;;;;4.03;2.35;;;21.80;91.20;;;;;;2085453;28;20044;-70
2022/05/19 04:02:51;;;;;;;3.90;2.25;;;21.70;91.20;;;;;;2085593;28;20021;-70
2022/05/19 04:03:52;;;;;;;4.90;2.72;;;21.80;91.40;;;;;;2083859;28;21569;-70
2022/05/19 04:04:53;;;;;;;2.78;2.40;;;21.80;91.10;;;;;;2082331;28;20376;-70
2022/05/19 04:05:53;;;;;;;5.07;1.95;;;21.80;91.40;;;;;;2081872;28;20146;-70
2022/05/19 04:06:54;;;;;;;2.35;2.15;;;21.80;91.20;;;;;;2085289;28;20439;-70
2022/05/19 04:07:54;;;;;;;6.10;2.53;;;21.70;91.40;;;;;;2082846;28;20533;-70
2022/05/19 04:08:55;;;;;;;5.10;2.10;;;21.70;91.70;;;;;;2082713;28;20396;-70
2022/05/19 04:09:56;;;;;;;3.75;2.38;;;21.70;91.30;;;;;;2083731;28;20025;-70
2022/05/19 04:10:57;;;;;;;3.70;2.20;;;21.70;91.50;;;;;;2082817;28;20030;-70
2022/05/19 04:11:57;;;;;;;4.18;2.92;;;21.70;91.30;;;;;;2084394;28;20071;-70
2022/05/19 04:12:58;;;;;;;3.67;2.30;;;21.70;91.40;;;;;;2084297;28;20714;-70
2022/05/19 04:13:59;;;;;;;2.80;2.33;;;21.70;91.10;;;;;;2083411;28;20071;-70
2022/05/19 04:15:00;;;;;;;6.43;2.28;;;21.70;91.20;;;;;;2081443;28;20055;-70
2022/05/19 04:16:00;;;;;;;3.00;2.22;;;21.80;91.50;;;;;;2080821;28;20021;-69
2022/05/19 04:17:01;;;;;;;4.78;2.38;;;21.70;91.40;;;;;;2083839;28;20022;-69
2022/05/19 04:18:02;;;;;;;2.63;2.22;;;21.80;91.40;;;;;;2084913;28;20013;-69
2022/05/19 04:19:02;;;;;;;5.88;2.30;;;21.70;91.30;;;;;;2084475;28;20638;-69
2022/05/19 04:20:06;;;;;;;5.35;2.42;;;21.80;91.20;;;;;;2083094;28;20509;-69
2022/05/19 04:21:07;;;;;;;5.45;2.38;;;21.70;91.10;;;;;;2081298;28;20454;-69
2022/05/19 04:22:08;;;;;;;3.10;2.22;;;21.70;91.00;;;;;;2083786;28;20048;-69
2022/05/19 04:23:08;;;;;;;2.15;1.85;;;21.80;91.60;;;;;;2078727;28;20021;-70
2022/05/19 04:24:09;;;;;;;3.85;2.22;;;21.80;91.50;;;;;;2076549;28;20030;-70
2022/05/19 04:25:11;;;;;;;3.25;2.05;;;21.80;91.40;;;;;;2081335;28;20030;-70
2022/05/19 04:26:14;;;;;;;3.30;2.58;;;21.80;91.60;;;;;;2085332;28;20500;-70
2022/05/19 04:27:16;;;;;;;2.75;2.20;;;21.80;91.50;;;;;;2084379;28;20037;-70
2022/05/19 04:28:17;;;;;;;3.15;2.15;;;21.80;91.90;;;;;;2082979;28;20025;-70
2022/05/19 04:29:18;;;;;;;3.47;2.55;;;21.80;92.20;;;;;;2084482;28;20025;-70
2022/05/19 04:30:18;;;;;;;4.03;2.80;;;21.80;92.20;;;;;;2082692;28;20041;-70
2022/05/19 04:31:19;;;;;;;2.50;2.17;;;21.80;91.60;;;;;;2083957;28;20035;-70
2022/05/19 04:32:19;;;;;;;2.65;2.20;;;21.80;91.70;;;;;;2084962;28;20074;-70
2022/05/19 04:33:20;;;;;;;4.10;2.30;;;21.80;91.80;;;;;;2083640;28;20064;-70
2022/05/19 04:34:21;;;;;;;5.35;2.40;;;21.80;91.40;;;;;;2083906;28;20064;-70
2022/05/19 04:35:22;;;;;;;2.38;1.98;;;21.80;91.10;;;;;;2080688;28;20025;-70
2022/05/19 04:36:22;;;;;;;3.10;2.28;;;21.80;91.30;;;;;;2082387;28;20021;-70
2022/05/19 04:37:23;;;;;;;2.35;2.20;;;21.80;91.50;;;;;;2082868;28;20025;-70
2022/05/19 04:38:24;;;;;;;4.88;2.65;;;21.80;91.50;;;;;;2082368;28;20021;-70
2022/05/19 04:39:24;;;;;;;3.50;2.50;;;21.80;91.50;;;;;;2085082;28;20024;-70
2022/05/19 04:40:25;;;;;;;2.45;2.20;;;21.80;91.40;;;;;;2082742;28;20029;-70
2022/05/19 04:41:25;;;;;;;3.08;2.08;;;21.90;91.00;;;;;;2084776;28;20052;-70
2022/05/19 04:42:26;;;;;;;2.30;2.05;;;21.90;90.80;;;;;;2082641;28;20018;-70
2022/05/19 04:43:27;;;;;;;4.57;2.50;;;21.90;91.50;;;;;;2084298;28;20500;-70
2022/05/19 04:44:27;;;;;;;2.75;2.17;;;21.90;91.80;;;;;;2081811;28;20425;-70
2022/05/19 04:45:28;;;;;;;2.75;2.15;;;21.90;91.50;;;;;;2085039;28;20028;-70
2022/05/19 04:46:28;;;;;;;10.10;2.60;;;22.00;91.10;;;;;;2082575;28;20533;-70
2022/05/19 04:47:29;;;;;;;3.35;2.10;;;22.00;91.40;;;;;;2083267;28;21818;-70
2022/05/19 04:48:29;;;;;;;2.03;1.92;;;22.00;91.70;;;;;;2082288;28;20527;-70
2022/05/19 04:49:30;;;;;;;5.05;2.55;;;22.00;91.10;;;;;;2084116;28;20375;-70
2022/05/19 04:50:31;;;;;;;2.72;1.98;;;22.10;91.90;;;;;;2085234;28;20033;-70
2022/05/19 04:51:31;;;;;;;3.63;2.45;;;22.10;91.10;;;;;;2082674;28;20076;-70
2022/05/19 04:52:32;;;;;;;4.13;2.47;;;22.10;90.90;;;;;;2084177;28;20112;-70
2022/05/19 04:53:33;;;;;;;3.95;2.47;;;22.20;91.20;;;;;;2082861;28;20026;-70
2022/05/19 04:54:33;;;;;;;3.38;1.80;;;22.20;90.30;;;;;;2084116;28;20024;-70
2022/05/19 04:55:38;;;;;;;5.45;2.35;;;22.30;90.50;;;;;;2083825;28;20009;-70
2022/05/19 04:56:42;;;;;;;2.42;2.17;;;22.30;90.80;;;;;;2081825;28;20362;-70
2022/05/19 04:57:44;;;;;;;2.97;2.17;;;22.40;89.80;;;;;;2083179;28;20021;-70
2022/05/19 04:58:44;;;;;;;3.25;2.17;;;22.40;90.00;;;;;;2084200;28;20033;-70
2022/05/19 04:59:45;;;;;;;3.78;2.28;;;22.50;90.20;;;;;;2082143;28;20025;-70
2022/05/19 05:00:50;;;;;;;4.82;2.42;;;22.50;90.90;;;;;;2083721;28;20072;-70
2022/05/19 05:01:51;;;;;;;5.00;1.90;;;22.60;90.90;;;;;;2085462;28;20017;-70
2022/05/19 05:02:51;;;;;;;3.30;2.50;;;22.70;90.30;;;;;;2082399;28;20257;-70
2022/05/19 05:03:52;;;;;;;4.47;2.30;;;22.70;90.30;;;;;;2083511;28;20017;-70
2022/05/19 05:04:52;;;;;;;5.78;2.30;;;22.80;90.20;;;;;;2083040;28;20096;-70
2022/05/19 05:05:53;;;;;;;3.28;2.00;;;22.90;88.40;;;;;;2081877;28;20388;-70
2022/05/19 05:06:54;;;;;;;5.00;2.20;;;23.00;89.00;;;;;;2085079;28;20029;-70
2022/05/19 05:07:54;;;;;;;3.55;2.30;;;23.10;88.50;;;;;;2084432;28;20025;-70
2022/05/19 05:08:55;;;;;;;7.47;2.00;;;23.10;88.10;;;;;;2081666;28;20029;-70
2022/05/19 05:09:55;;;;;;;2.30;2.10;;;23.20;90.10;;;;;;2086635;28;20028;-70
2022/05/19 05:10:56;;;;;;;3.60;2.42;;;23.20;89.70;;;;;;2080753;28;20029;-70
2022/05/19 05:11:57;;;;;;;4.28;2.45;;;23.30;89.10;;;;;;2080429;28;20049;-70
2022/05/19 05:13:06;;;;;;;5.25;2.10;;;23.40;87.40;;;;;;2080410;28;20489;-70
2022/05/19 05:14:07;;;;;;;6.60;2.38;;;23.50;87.10;;;;;;2082860;28;20030;-70
2022/05/19 05:15:08;;;;;;;2.67;2.20;;;23.60;86.80;;;;;;2081507;28;20029;-70
2022/05/19 05:16:09;;;;;;;4.13;2.08;;;23.60;87.20;;;;;;2080970;28;20041;-70
2022/05/19 05:17:09;;;;;;;6.03;2.25;;;23.70;86.60;;;;;;2080696;28;20083;-70
2022/05/19 05:18:13;;;;;;;4.03;2.08;;;23.80;85.20;;;;;;2082317;28;20112;-70
2022/05/19 05:19:18;;;;;;;3.03;1.83;;;23.90;82.50;;;;;;2079885;28;20900;-70
2022/05/19 05:20:19;;;;;;;10.02;2.28;;;23.90;81.60;;;;;;2082510;28;20028;-70
2022/05/19 05:21:19;;;;;;;2.28;1.77;;;23.90;82.50;;;;;;2083139;28;20025;-70
2022/05/19 05:22:20;;;;;;;6.38;2.38;;;24.00;80.90;;;;;;2083484;28;20026;-70
2022/05/19 05:23:21;;;;;;;4.53;2.10;;;24.00;79.60;;;;;;2080051;28;20132;-70
2022/05/19 05:24:22;;;;;;;7.70;2.20;;;24.10;79.50;;;;;;2080702;28;20083;-70
2022/05/19 05:25:22;;;;;;;6.57;2.30;;;24.10;78.10;;;;;;2081175;28;20029;-70
2022/05/19 05:26:23;;;;;;;3.38;1.90;;;24.10;78.00;;;;;;2080961;28;20033;-70
2022/05/19 05:27:24;;;;;;;5.07;2.28;;;24.20;77.70;;;;;;2083732;28;20100;-70
2022/05/19 05:28:24;;;;;;;4.03;2.00;;;24.20;78.90;;;;;;2081282;28;20028;-70
2022/05/19 05:29:25;;;;;;;3.72;2.05;;;24.20;78.30;;;;;;2085605;28;20097;-70
2022/05/19 05:30:26;;;;;;;5.85;2.03;;;24.20;76.40;;;;;;2080699;28;20111;-70
2022/05/19 05:31:26;;;;;;;4.95;1.90;;;24.30;77.30;;;;;;2083919;28;20401;-70
2022/05/19 05:32:27;;;;;;;3.28;1.83;;;24.30;75.90;;;;;;2085457;28;20526;-70
2022/05/19 05:33:27;;;;;;;2.95;2.22;;;24.40;75.90;;;;;;2080479;28;20032;-70
2022/05/19 05:34:28;;;;;;;3.80;2.03;;;24.40;75.90;;;;;;2079954;28;20026;-70
2022/05/19 05:35:28;;;;;;;4.18;2.20;;;24.40;74.80;;;;;;2079782;28;20112;-70
2022/05/19 05:36:29;;;;;;;3.53;2.20;;;24.40;74.70;;;;;;2081700;28;20033;-70